Time;durP1;ratioP1;P1;durP2;ratioP2;P2;SDS_P1;SDS_P2;PMS_P1;PMS_P2;Temp;Humidity;BMP_temperature;BMP_pressure;BME280_temperature;BME280_humidity;BME280_pressure;Samples;Min_cycle;Max_cycle;Signal;HPM_P1;HPM_P2
2022/09/08 00:01:43;;;;;;;13.85;3.67;;;;;;;;;;5052853;28;20029;-71
2022/09/08 00:04:09;;;;;;;11.70;2.65;;;;;;;;;;5052995;28;20021;-72
2022/09/08 00:06:35;;;;;;;12.95;2.38;;;;;;;;;;5052837;28;20362;-71
2022/09/08 00:09:01;;;;;;;10.50;2.97;;;;;;;;;;5053198;28;20052;-71
2022/09/08 00:11:30;;;;;;;13.27;2.67;;;;;;;;;;5035273;28;20021;-72
2022/09/08 00:14:00;;;;;;;13.63;3.00;;;;;;;;;;5052858;28;20123;-71
2022/09/08 00:16:26;;;;;;;9.85;2.42;;;;;;;;;;5053108;28;20025;-71
2022/09/08 00:18:52;;;;;;;10.52;3.17;;;;;;;;;;5052793;28;20072;-71
2022/09/08 00:21:20;;;;;;;14.35;2.67;;;;;;;;;;5052956;28;20048;-72
2022/09/08 00:23:46;;;;;;;14.30;2.30;;;;;;;;;;5053015;28;20090;-70
2022/09/08 00:26:12;;;;;;;12.68;2.83;;;;;;;;;;5052717;28;20465;-71
2022/09/08 00:28:38;;;;;;;14.55;3.13;;;;;;;;;;5053207;28;20071;-71
2022/09/08 00:31:04;;;;;;;11.57;2.83;;;;;;;;;;5052952;28;20021;-72
2022/09/08 00:33:32;;;;;;;12.95;3.65;;;;;;;;;;5052670;28;20029;-72
2022/09/08 00:35:58;;;;;;;17.80;2.90;;;;;;;;;;5052716;28;20017;-72
2022/09/08 00:38:24;;;;;;;12.30;2.75;;;;;;;;;;5052642;28;20029;-71
2022/09/08 00:40:52;;;;;;;14.65;2.95;;;;;;;;;;5052536;28;20028;-72
2022/09/08 00:43:33;;;;;;;14.07;3.22;;;;;;;;;;5054768;28;20021;-72
2022/09/08 00:46:20;;;;;;;11.23;2.55;;;;;;;;;;5056244;28;20024;-71
2022/09/08 00:48:54;;;;;;;14.88;3.03;;;;;;;;;;5056768;28;20064;-71
2022/09/08 00:51:20;;;;;;;12.32;3.05;;;;;;;;;;5056154;28;20028;-71
2022/09/08 00:53:48;;;;;;;14.10;2.42;;;;;;;;;;5056641;28;20036;-71
2022/09/08 00:56:14;;;;;;;11.52;3.65;;;;;;;;;;5056063;28;20025;-72
2022/09/08 00:58:40;;;;;;;11.65;2.38;;;;;;;;;;5055814;28;20409;-71
2022/09/08 01:01:07;;;;;;;13.57;2.55;;;;;;;;;;5055931;28;20497;-70
2022/09/08 01:03:33;;;;;;;13.55;2.45;;;;;;;;;;5055956;28;20099;-71
2022/09/08 01:06:06;;;;;;;10.13;2.60;;;;;;;;;;5055808;28;20096;-72
2022/09/08 01:14:09;;;;;;;13.52;3.00;;;;;;;;;;5055759;28;20512;-72
2022/09/08 01:16:40;;;;;;;16.27;2.63;;;;;;;;;;5055936;28;20394;-72
2022/09/08 01:19:12;;;;;;;13.40;2.92;;;;;;;;;;5037752;28;20485;-72
2022/09/08 01:21:51;;;;;;;15.02;2.80;;;;;;;;;;5055531;28;20029;-72
2022/09/08 01:24:18;;;;;;;11.52;2.55;;;;;;;;;;5055897;28;20021;-72
2022/09/08 01:26:49;;;;;;;11.55;2.45;;;;;;;;;;5055527;28;20043;-71
2022/09/08 01:29:16;;;;;;;10.13;2.63;;;;;;;;;;5038071;28;20029;-71
2022/09/08 01:31:43;;;;;;;12.60;2.78;;;;;;;;;;5055931;28;20063;-72
2022/09/08 01:34:10;;;;;;;11.30;2.70;;;;;;;;;;5055351;28;20111;-70
2022/09/08 01:36:36;;;;;;;13.18;2.45;;;;;;;;;;5055565;28;20423;-71
2022/09/08 01:39:02;;;;;;;14.88;2.90;;;;;;;;;;5055216;28;20086;-71
2022/09/08 01:41:28;;;;;;;15.60;3.72;;;;;;;;;;5055667;28;20075;-71
2022/09/08 01:43:54;;;;;;;11.98;2.60;;;;;;;;;;5055407;28;20021;-71
2022/09/08 01:46:20;;;;;;;9.18;2.38;;;;;;;;;;5037252;28;20021;-71
2022/09/08 01:48:46;;;;;;;10.57;2.75;;;;;;;;;;5055351;28;20021;-71
2022/09/08 01:51:12;;;;;;;14.13;3.00;;;;;;;;;;5055088;28;20029;-72
2022/09/08 01:53:38;;;;;;;14.20;3.05;;;;;;;;;;5054614;28;20025;-71
2022/09/08 01:56:05;;;;;;;14.48;3.15;;;;;;;;;;5054876;28;20033;-71
2022/09/08 01:58:31;;;;;;;10.93;2.63;;;;;;;;;;5054721;28;20119;-72
2022/09/08 02:00:58;;;;;;;15.45;2.60;;;;;;;;;;5054754;28;20021;-71
2022/09/08 02:03:24;;;;;;;12.02;3.10;;;;;;;;;;5054834;28;20025;-72
2022/09/08 02:05:50;;;;;;;15.82;2.80;;;;;;;;;;5054980;28;20017;-72
2022/09/08 02:08:16;;;;;;;13.60;3.20;;;;;;;;;;5054985;28;20108;-72
2022/09/08 02:10:51;;;;;;;15.70;3.33;;;;;;;;;;5054654;28;20112;-72
2022/09/08 02:13:17;;;;;;;8.75;2.05;;;;;;;;;;5036480;28;20060;-72
2022/09/08 02:15:43;;;;;;;11.00;2.70;;;;;;;;;;5054562;28;20064;-72
2022/09/08 02:18:09;;;;;;;14.27;3.08;;;;;;;;;;5054518;28;20035;-72
2022/09/08 02:20:35;;;;;;;11.35;2.80;;;;;;;;;;5054404;28;20036;-71
2022/09/08 02:23:01;;;;;;;12.43;2.25;;;;;;;;;;5054431;28;20459;-73
2022/09/08 02:25:27;;;;;;;9.18;2.42;;;;;;;;;;5054366;28;20024;-71
2022/09/08 02:27:54;;;;;;;13.43;2.63;;;;;;;;;;5054624;28;20067;-72
2022/09/08 02:30:20;;;;;;;10.95;2.53;;;;;;;;;;5055061;28;20024;-72
2022/09/08 02:32:46;;;;;;;10.93;3.10;;;;;;;;;;5054307;28;20025;-72
2022/09/08 02:35:12;;;;;;;9.48;2.13;;;;;;;;;;5054522;28;20513;-72
2022/09/08 02:37:39;;;;;;;9.60;2.08;;;;;;;;;;5054124;28;20073;-70
2022/09/08 02:40:06;;;;;;;7.57;1.77;;;;;;;;;;5054115;28;20473;-71
2022/09/08 02:42:32;;;;;;;7.35;2.10;;;;;;;;;;5053988;28;20031;-72
2022/09/08 02:44:58;;;;;;;9.20;2.20;;;;;;;;;;5054047;28;20021;-71
2022/09/08 02:47:24;;;;;;;9.80;2.40;;;;;;;;;;5053983;28;20020;-71
2022/09/08 02:49:50;;;;;;;12.05;2.17;;;;;;;;;;5053904;28;20029;-72
2022/09/08 02:52:15;;;;;;;9.68;3.00;;;;;;;;;;5053888;28;20021;-72
2022/09/08 02:54:42;;;;;;;9.52;2.63;;;;;;;;;;5054108;28;20074;-72
2022/09/08 02:57:07;;;;;;;6.35;1.55;;;;;;;;;;5053658;28;20434;-72
2022/09/08 02:59:33;;;;;;;10.57;2.25;;;;;;;;;;5053754;28;20071;-72
2022/09/08 03:02:00;;;;;;;7.32;1.95;;;;;;;;;;5053640;28;20103;-72
2022/09/08 03:04:26;;;;;;;8.50;3.03;;;;;;;;;;5053961;28;20017;-71
2022/09/08 03:06:53;;;;;;;12.30;3.08;;;;;;;;;;5053624;28;20017;-72
2022/09/08 03:09:19;;;;;;;14.43;2.90;;;;;;;;;;5053600;28;20024;-71
2022/09/08 03:11:45;;;;;;;9.18;2.00;;;;;;;;;;5053534;28;20017;-72
2022/09/08 03:14:11;;;;;;;12.25;2.30;;;;;;;;;;5053740;28;20036;-71
2022/09/08 03:16:37;;;;;;;9.82;2.30;;;;;;;;;;5053444;28;20397;-71
2022/09/08 03:19:03;;;;;;;12.57;3.13;;;;;;;;;;5053421;28;20028;-71
2022/09/08 03:21:29;;;;;;;11.00;2.20;;;;;;;;;;5053328;28;20025;-71
2022/09/08 03:23:55;;;;;;;11.23;2.40;;;;;;;;;;5053626;28;20035;-70
2022/09/08 03:26:24;;;;;;;15.48;2.90;;;;;;;;;;5053323;28;20013;-70
2022/09/08 03:28:50;;;;;;;9.65;2.40;;;;;;;;;;5053765;28;20071;-71
2022/09/08 03:31:16;;;;;;;14.50;2.30;;;;;;;;;;5053233;28;20029;-71
2022/09/08 03:33:43;;;;;;;13.00;2.38;;;;;;;;;;5053276;28;20067;-72
2022/09/08 03:36:10;;;;;;;7.13;2.13;;;;;;;;;;5053178;28;20075;-71
2022/09/08 03:38:36;;;;;;;10.27;3.08;;;;;;;;;;5053206;28;20031;-72
2022/09/08 03:41:06;;;;;;;9.52;2.45;;;;;;;;;;5053085;28;20025;-70
2022/09/08 03:43:32;;;;;;;10.35;2.75;;;;;;;;;;5053672;28;20021;-72
2022/09/08 03:45:58;;;;;;;9.00;2.35;;;;;;;;;;5053630;28;20037;-71
2022/09/08 03:48:24;;;;;;;5.78;1.77;;;;;;;;;;5053105;28;20163;-72
2022/09/08 03:50:50;;;;;;;15.32;2.33;;;;;;;;;;5053071;28;20497;-72
2022/09/08 03:53:16;;;;;;;6.72;2.63;;;;;;;;;;5053072;28;20029;-71
2022/09/08 03:55:43;;;;;;;7.68;1.92;;;;;;;;;;5053308;28;20425;-71
2022/09/08 03:58:09;;;;;;;8.00;2.00;;;;;;;;;;5052975;28;20146;-71
2022/09/08 04:00:35;;;;;;;10.23;2.08;;;;;;;;;;5052908;28;20547;-72
2022/09/08 04:03:01;;;;;;;9.70;1.80;;;;;;;;;;5053005;28;20508;-72
2022/09/08 04:05:28;;;;;;;10.05;2.63;;;;;;;;;;5052879;28;20021;-72
2022/09/08 04:07:54;;;;;;;10.75;2.25;;;;;;;;;;5052942;28;20109;-71
2022/09/08 04:10:20;;;;;;;8.00;2.10;;;;;;;;;;5052947;28;20052;-71
2022/09/08 04:12:47;;;;;;;9.82;2.22;;;;;;;;;;5053197;28;20548;-72
2022/09/08 04:15:13;;;;;;;11.35;3.58;;;;;;;;;;5052843;28;20504;-71
2022/09/08 04:17:39;;;;;;;9.70;2.58;;;;;;;;;;5054294;28;20066;-71
2022/09/08 04:20:05;;;;;;;9.30;2.70;;;;;;;;;;5056762;28;20021;-72
2022/09/08 04:22:31;;;;;;;10.73;2.63;;;;;;;;;;5056934;28;20025;-71
2022/09/08 04:24:58;;;;;;;12.80;2.95;;;;;;;;;;5057218;28;20545;-73
2022/09/08 04:27:24;;;;;;;15.18;2.45;;;;;;;;;;5056601;28;20382;-72
2022/09/08 04:29:50;;;;;;;12.25;3.47;;;;;;;;;;5057089;28;20032;-71
2022/09/08 04:32:16;;;;;;;14.68;2.53;;;;;;;;;;5056595;28;20076;-72
2022/09/08 04:34:42;;;;;;;12.45;3.15;;;;;;;;;;5056764;28;20028;-71
2022/09/08 04:37:08;;;;;;;11.77;2.60;;;;;;;;;;5056490;28;20061;-71
2022/09/08 04:39:35;;;;;;;15.52;2.97;;;;;;;;;;5056445;28;20047;-72
2022/09/08 04:42:01;;;;;;;10.77;2.20;;;;;;;;;;5056601;28;20083;-71
2022/09/08 04:44:27;;;;;;;12.20;2.47;;;;;;;;;;5056335;28;20032;-72
2022/09/08 04:46:53;;;;;;;11.82;2.70;;;;;;;;;;5056551;28;20068;-70
2022/09/08 04:49:19;;;;;;;13.75;2.83;;;;;;;;;;5056465;28;20021;-71
2022/09/08 04:51:45;;;;;;;10.70;2.30;;;;;;;;;;5056124;28;20113;-72
2022/09/08 04:54:11;;;;;;;14.95;3.13;;;;;;;;;;5056132;28;20480;-72
2022/09/08 04:56:37;;;;;;;12.40;3.63;;;;;;;;;;5056126;28;20087;-71
2022/09/08 04:59:04;;;;;;;9.98;2.65;;;;;;;;;;5055710;28;20147;-72
2022/09/08 05:01:32;;;;;;;9.13;2.28;;;;;;;;;;5055897;28;20116;-71
2022/09/08 05:04:00;;;;;;;10.48;2.42;;;;;;;;;;5055963;28;20024;-71
2022/09/08 05:06:26;;;;;;;16.70;3.80;;;;;;;;;;5056162;28;20028;-72
2022/09/08 05:08:54;;;;;;;10.55;2.90;;;;;;;;;;5056164;28;20492;-71
2022/09/08 05:11:21;;;;;;;8.13;2.47;;;;;;;;;;5055842;28;20051;-71
2022/09/08 05:13:49;;;;;;;15.18;2.53;;;;;;;;;;5055735;28;20385;-71
2022/09/08 05:16:16;;;;;;;10.20;2.65;;;;;;;;;;5055655;28;20139;-71
2022/09/08 05:18:46;;;;;;;10.95;3.08;;;;;;;;;;5055720;28;20102;-72
2022/09/08 05:21:12;;;;;;;16.50;3.13;;;;;;;;;;5055576;28;20061;-71
2022/09/08 05:23:38;;;;;;;11.15;3.10;;;;;;;;;;5055854;28;20025;-71
2022/09/08 05:26:08;;;;;;;11.88;2.50;;;;;;;;;;5055489;28;20500;-72
2022/09/08 05:28:36;;;;;;;10.30;3.20;;;;;;;;;;5055963;28;20025;-71
2022/09/08 05:31:02;;;;;;;13.15;3.00;;;;;;;;;;5055908;28;20550;-71
2022/09/08 05:33:28;;;;;;;14.10;2.85;;;;;;;;;;5055680;28;20036;-71
2022/09/08 05:35:54;;;;;;;16.17;3.50;;;;;;;;;;5055349;28;20397;-71
2022/09/08 05:38:20;;;;;;;13.23;2.58;;;;;;;;;;5055307;28;20083;-71
2022/09/08 05:40:47;;;;;;;9.25;2.60;;;;;;;;;;5055173;28;20021;-71
2022/09/08 05:43:14;;;;;;;14.25;3.30;;;;;;;;;;5055221;28;20112;-70
2022/09/08 05:45:43;;;;;;;9.88;2.17;;;;;;;;;;5055376;28;20021;-71
2022/09/08 05:48:09;;;;;;;11.93;3.17;;;;;;;;;;5055120;28;20478;-72
2022/09/08 05:50:35;;;;;;;13.18;3.38;;;;;;;;;;5055026;28;20039;-71
2022/09/08 05:53:02;;;;;;;10.30;2.65;;;;;;;;;;5054985;28;20029;-71
2022/09/08 05:55:28;;;;;;;9.45;2.70;;;;;;;;;;5054983;28;20497;-72
2022/09/08 05:57:54;;;;;;;7.57;2.30;;;;;;;;;;5054762;28;20060;-71
2022/09/08 06:00:21;;;;;;;15.35;2.80;;;;;;;;;;5054939;28;20021;-72
2022/09/08 06:02:50;;;;;;;11.27;2.78;;;;;;;;;;5054787;28;20029;-71
2022/09/08 06:05:17;;;;;;;9.27;2.50;;;;;;;;;;5054785;28;20023;-71
2022/09/08 06:07:43;;;;;;;11.65;2.42;;;;;;;;;;5055060;28;20582;-72
2022/09/08 06:10:09;;;;;;;12.00;2.45;;;;;;;;;;5054746;28;20381;-71
2022/09/08 06:12:35;;;;;;;10.20;2.47;;;;;;;;;;5054668;28;20029;-71
2022/09/08 06:15:01;;;;;;;16.75;3.47;;;;;;;;;;5054627;28;20094;-71
2022/09/08 06:17:27;;;;;;;13.32;3.15;;;;;;;;;;5054864;28;20104;-71
2022/09/08 06:19:53;;;;;;;15.75;2.90;;;;;;;;;;5054513;28;20460;-71
2022/09/08 06:22:19;;;;;;;16.23;3.88;;;;;;;;;;5054370;28;20064;-71
2022/09/08 06:24:45;;;;;;;16.35;2.95;;;;;;;;;;5054718;28;20052;-71
2022/09/08 06:27:19;;;;;;;12.95;2.88;;;;;;;;;;5054600;28;20427;-72
2022/09/08 06:29:54;;;;;;;12.85;3.83;;;;;;;;;;5055136;28;20039;-72
2022/09/08 06:32:23;;;;;;;15.48;4.13;;;;;;;;;;5054818;28;20025;-72
2022/09/08 06:34:55;;;;;;;10.02;2.72;;;;;;;;;;5054494;28;20021;-71
2022/09/08 06:37:37;;;;;;;15.45;3.45;;;;;;;;;;5054691;28;20029;-71
2022/09/08 06:40:24;;;;;;;14.95;3.22;;;;;;;;;;5035547;28;20033;-71
2022/09/08 06:42:50;;;;;;;10.32;2.55;;;;;;;;;;5046734;28;20052;-72
2022/09/08 06:45:20;;;;;;;14.10;3.17;;;;;;;;;;5054045;28;20100;-72
2022/09/08 06:47:46;;;;;;;;;;;;;;;;;;5054977;28;20025;-72
2022/09/08 06:50:15;;;;;;;9.82;2.70;;;;;;;;;;5052173;28;19916;-70
2022/09/08 06:52:49;;;;;;;16.08;3.03;;;;;;;;;;5051094;28;20025;-80
2022/09/08 06:55:15;;;;;;;10.10;2.83;;;;;;;;;;5052751;28;20033;-73
2022/09/08 06:58:03;;;;;;;14.70;3.42;;;;;;;;;;5042258;28;20041;-73
2022/09/08 07:00:34;;;;;;;10.20;2.92;;;;;;;;;;5072231;28;20365;-76
2022/09/08 07:03:15;;;;;;;14.18;3.45;;;;;;;;;;5072319;28;20032;-76
2022/09/08 07:05:53;;;;;;;11.45;3.10;;;;;;;;;;5073643;28;20052;-74
2022/09/08 07:08:42;;;;;;;17.42;4.63;;;;;;;;;;5073852;28;20021;-74
2022/09/08 07:11:14;;;;;;;17.73;4.32;;;;;;;;;;5063210;28;20550;-73
2022/09/08 07:13:46;;;;;;;15.77;3.85;;;;;;;;;;5074090;28;20024;-75
2022/09/08 07:16:31;;;;;;;15.00;4.40;;;;;;;;;;5071158;28;20090;-70
2022/09/08 07:19:00;;;;;;;17.08;5.38;;;;;;;;;;5073708;28;20021;-79
2022/09/08 07:21:29;;;;;;;12.43;3.35;;;;;;;;;;5073309;28;20078;-79
2022/09/08 07:23:56;;;;;;;18.33;5.22;;;;;;;;;;5073419;28;20074;-79
2022/09/08 07:26:25;;;;;;;19.17;4.50;;;;;;;;;;5074089;28;20472;-77
2022/09/08 07:28:53;;;;;;;21.52;4.32;;;;;;;;;;5074021;28;20044;-76
2022/09/08 07:31:20;;;;;;;17.08;3.25;;;;;;;;;;5072956;28;20401;-76
2022/09/08 07:33:49;;;;;;;15.23;4.28;;;;;;;;;;5073412;28;20029;-77
2022/09/08 07:36:30;;;;;;;19.27;4.13;;;;;;;;;;5070943;28;20075;-77
2022/09/08 07:38:57;;;;;;;15.55;3.85;;;;;;;;;;5073276;28;20020;-77
2022/09/08 07:41:30;;;;;;;15.25;3.40;;;;;;;;;;5073126;28;20502;-79
2022/09/08 07:43:59;;;;;;;16.13;3.97;;;;;;;;;;5073204;28;20020;-79
2022/09/08 07:46:25;;;;;;;19.17;4.20;;;;;;;;;;5072021;28;20396;-79
2022/09/08 07:48:57;;;;;;;15.13;4.15;;;;;;;;;;5068233;28;20327;-76
2022/09/08 07:51:27;;;;;;;18.90;3.78;;;;;;;;;;5073488;28;20451;-78
2022/09/08 07:54:12;;;;;;;19.05;4.35;;;;;;;;;;5076597;28;20111;-74
2022/09/08 07:56:40;;;;;;;14.52;3.42;;;;;;;;;;5077701;28;20025;-75
2022/09/08 07:59:09;;;;;;;12.88;3.75;;;;;;;;;;5058534;28;20505;-76
2022/09/08 08:01:36;;;;;;;15.77;3.20;;;;;;;;;;5057125;28;20392;-75
2022/09/08 08:04:05;;;;;;;12.98;3.35;;;;;;;;;;5057126;28;20024;-73
2022/09/08 08:06:51;;;;;;;17.50;3.75;;;;;;;;;;5056104;28;20028;-78
2022/09/08 08:09:41;;;;;;;14.27;3.95;;;;;;;;;;5057091;28;20028;-71
2022/09/08 08:12:16;;;;;;;12.80;3.45;;;;;;;;;;5055037;28;20400;-70
2022/09/08 08:15:02;;;;;;;14.25;3.00;;;;;;;;;;5057157;28;20106;-73
2022/09/08 08:17:37;;;;;;;15.10;3.35;;;;;;;;;;5057123;28;20108;-76
2022/09/08 08:20:15;;;;;;;12.30;3.25;;;;;;;;;;5057357;28;20061;-76
2022/09/08 08:22:56;;;;;;;11.57;3.35;;;;;;;;;;5056769;28;20035;-71
2022/09/08 08:25:25;;;;;;;11.73;2.88;;;;;;;;;;5055516;28;20025;-76
2022/09/08 08:27:52;;;;;;;14.77;3.25;;;;;;;;;;5051255;28;20427;-77
2022/09/08 08:30:21;;;;;;;15.48;3.63;;;;;;;;;;5057094;28;20385;-78
2022/09/08 08:32:53;;;;;;;11.85;3.17;;;;;;;;;;5054044;28;20497;-79
2022/09/08 08:35:38;;;;;;;12.50;2.92;;;;;;;;;;5018809;28;20116;-78
2022/09/08 08:38:05;;;;;;;12.13;3.30;;;;;;;;;;5055955;28;20029;-72
2022/09/08 08:40:51;;;;;;;10.10;2.67;;;;;;;;;;5055641;28;20036;-74
2022/09/08 08:43:17;;;;;;;13.48;2.92;;;;;;;;;;5056527;28;20094;-75
2022/09/08 08:45:55;;;;;;;17.52;3.78;;;;;;;;;;5053773;28;20029;-79
2022/09/08 08:48:31;;;;;;;14.25;3.67;;;;;;;;;;5036523;28;20060;-74
2022/09/08 08:51:06;;;;;;;9.25;3.10;;;;;;;;;;5054479;28;20032;-76
2022/09/08 08:53:50;;;;;;;9.45;2.45;;;;;;;;;;5056188;28;20039;-77
2022/09/08 08:56:34;;;;;;;8.93;2.97;;;;;;;;;;5055958;28;20037;-78
2022/09/08 08:59:04;;;;;;;11.52;2.60;;;;;;;;;;5054083;28;20078;-76
2022/09/08 09:01:30;;;;;;;;;;;;;;;;;;5055071;28;20029;-77
2022/09/08 09:04:08;;;;;;;12.25;2.92;;;;;;;;;;5037690;28;19999;-75
2022/09/08 09:06:57;;;;;;;16.90;3.20;;;;;;;;;;5056114;28;20036;-75
2022/09/08 09:09:40;;;;;;;17.38;3.63;;;;;;;;;;5037023;28;20033;-77
2022/09/08 09:12:25;;;;;;;12.55;3.70;;;;;;;;;;5056464;28;20100;-79
2022/09/08 09:15:09;;;;;;;11.57;2.65;;;;;;;;;;5055139;28;20512;-83
2022/09/08 09:17:41;;;;;;;13.48;2.95;;;;;;;;;;5053514;28;20025;-78
2022/09/08 09:20:07;;;;;;;13.00;3.20;;;;;;;;;;5054277;28;20036;-75
2022/09/08 09:22:33;;;;;;;11.80;2.75;;;;;;;;;;5055546;28;20033;-75
2022/09/08 09:25:10;;;;;;;7.43;2.60;;;;;;;;;;5055636;28;20025;-71
2022/09/08 09:28:05;;;;;;;11.52;2.58;;;;;;;;;;5054882;28;20021;-77
2022/09/08 09:30:50;;;;;;;13.10;3.33;;;;;;;;;;5056111;28;20029;-73
2022/09/08 09:33:28;;;;;;;9.10;2.88;;;;;;;;;;5054770;28;20032;-80
2022/09/08 09:36:19;;;;;;;14.63;3.22;;;;;;;;;;5055774;28;20481;-70
2022/09/08 09:38:45;;;;;;;11.57;2.88;;;;;;;;;;5054324;28;20052;-72
2022/09/08 09:41:14;;;;;;;16.40;3.53;;;;;;;;;;5054458;28;20028;-78
2022/09/08 09:43:51;;;;;;;15.95;3.83;;;;;;;;;;5054306;28;20021;-78
2022/09/08 09:46:37;;;;;;;9.23;2.92;;;;;;;;;;5054465;28;20484;-77
2022/09/08 09:49:22;;;;;;;11.40;3.30;;;;;;;;;;5055855;28;20531;-78
2022/09/08 09:51:57;;;;;;;14.52;2.97;;;;;;;;;;5055233;28;20033;-78
2022/09/08 09:54:46;;;;;;;16.02;3.22;;;;;;;;;;5053437;28;20108;-73
2022/09/08 09:57:15;;;;;;;17.77;3.63;;;;;;;;;;5053609;28;20107;-78
2022/09/08 09:59:52;;;;;;;10.55;2.88;;;;;;;;;;5055293;28;20059;-80
2022/09/08 10:02:21;;;;;;;13.32;3.63;;;;;;;;;;5052932;28;20033;-73
2022/09/08 10:05:06;;;;;;;16.95;3.10;;;;;;;;;;5055412;28;20024;-75
2022/09/08 10:07:44;;;;;;;19.48;3.60;;;;;;;;;;5053983;28;20080;-76
2022/09/08 10:10:25;;;;;;;10.23;2.55;;;;;;;;;;5054860;28;20092;-71
2022/09/08 10:12:52;;;;;;;14.27;3.55;;;;;;;;;;5057466;28;20061;-76
2022/09/08 10:15:35;;;;;;;11.60;2.72;;;;;;;;;;5036692;28;20032;-81
2022/09/08 10:18:01;;;;;;;11.00;2.83;;;;;;;;;;5053192;28;20492;-76
2022/09/08 10:20:30;;;;;;;14.43;2.70;;;;;;;;;;5053180;28;20036;-75
2022/09/08 10:23:16;;;;;;;8.50;2.50;;;;;;;;;;5054667;28;20029;-74
2022/09/08 10:25:54;;;;;;;11.95;2.83;;;;;;;;;;5055090;28;20374;-80
2022/09/08 10:28:39;;;;;;;13.32;3.15;;;;;;;;;;5052878;28;20021;-78
2022/09/08 10:31:04;;;;;;;6.43;2.33;;;;;;;;;;5052264;28;20036;-72
2022/09/08 10:33:55;;;;;;;14.75;3.40;;;;;;;;;;5052815;28;20025;-72
2022/09/08 10:36:50;;;;;;;8.25;2.47;;;;;;;;;;5054862;28;20108;-73
2022/09/08 10:39:17;;;;;;;8.38;2.30;;;;;;;;;;5017945;28;20410;-71
2022/09/08 10:42:07;;;;;;;11.25;2.80;;;;;;;;;;5054380;28;20028;-72
2022/09/08 10:44:41;;;;;;;11.52;2.72;;;;;;;;;;5054343;28;20025;-71
2022/09/08 10:47:10;;;;;;;7.60;2.08;;;;;;;;;;5054310;28;20051;-73
2022/09/08 10:50:00;;;;;;;14.05;3.20;;;;;;;;;;5054001;28;20362;-72
2022/09/08 10:52:53;;;;;;;15.38;2.78;;;;;;;;;;5054240;28;20029;-72
2022/09/08 10:55:32;;;;;;;10.88;2.50;;;;;;;;;;5038321;28;20029;-72
2022/09/08 10:58:10;;;;;;;10.77;3.22;;;;;;;;;;5053557;28;20053;-72
2022/09/08 11:00:43;;;;;;;11.38;2.40;;;;;;;;;;5053774;28;20393;-71
2022/09/08 11:03:40;;;;;;;14.88;3.20;;;;;;;;;;5053688;28;20045;-73
2022/09/08 11:06:22;;;;;;;13.45;3.15;;;;;;;;;;5053943;28;20016;-71
2022/09/08 11:09:07;;;;;;;13.10;3.20;;;;;;;;;;5054225;28;20029;-71
2022/09/08 11:11:51;;;;;;;10.35;2.60;;;;;;;;;;5053593;28;20393;-71
2022/09/08 11:14:34;;;;;;;10.05;2.83;;;;;;;;;;5053810;28;20040;-72
2022/09/08 11:17:03;;;;;;;11.32;2.60;;;;;;;;;;5053818;28;20031;-73
2022/09/08 11:19:35;;;;;;;9.20;2.58;;;;;;;;;;5053467;28;20029;-71
2022/09/08 11:22:40;;;;;;;13.18;2.47;;;;;;;;;;5053362;28;20049;-74
2022/09/08 11:25:24;;;;;;;8.77;2.20;;;;;;;;;;5012224;28;20026;-71
2022/09/08 11:27:56;;;;;;;9.60;2.72;;;;;;;;;;5012145;28;20030;-72
2022/09/08 11:30:42;;;;;;;10.85;2.45;;;;;;;;;;5039005;28;20037;-71
2022/09/08 11:33:14;;;;;;;9.50;2.65;;;;;;;;;;5032401;28;20033;-72
2022/09/08 11:35:52;;;;;;;11.07;2.85;;;;;;;;;;5053333;28;20056;-72
2022/09/08 11:38:18;;;;;;;13.60;2.70;;;;;;;;;;5053264;28;20090;-72
2022/09/08 11:40:45;;;;;;;11.15;2.63;;;;;;;;;;5053411;28;20461;-72
2022/09/08 11:43:30;;;;;;;9.13;2.33;;;;;;;;;;5035090;28;20481;-72
2022/09/08 11:46:08;;;;;;;14.23;3.13;;;;;;;;;;5053184;28;20445;-73
2022/09/08 11:48:34;;;;;;;11.38;2.75;;;;;;;;;;5053088;28;20021;-71
2022/09/08 11:51:19;;;;;;;7.72;2.22;;;;;;;;;;5053103;28;20021;-72
2022/09/08 11:53:45;;;;;;;11.93;3.08;;;;;;;;;;5053618;28;20374;-72
2022/09/08 11:56:11;;;;;;;8.70;2.40;;;;;;;;;;5053103;28;20047;-72
2022/09/08 11:59:12;;;;;;;6.57;2.47;;;;;;;;;;5052868;28;20045;-72
2022/09/08 12:01:44;;;;;;;9.60;2.58;;;;;;;;;;5011223;28;20482;-71
2022/09/08 12:04:28;;;;;;;12.35;2.40;;;;;;;;;;5046268;28;20519;-73
2022/09/08 12:07:06;;;;;;;10.57;2.53;;;;;;;;;;5052985;28;20021;-71
2022/09/08 12:09:40;;;;;;;12.05;2.90;;;;;;;;;;5033700;28;20435;-72
2022/09/08 12:12:24;;;;;;;8.60;3.00;;;;;;;;;;5052197;28;20056;-79
2022/09/08 12:15:08;;;;;;;10.50;2.45;;;;;;;;;;5050514;28;20565;-80
2022/09/08 12:17:49;;;;;;;15.70;2.47;;;;;;;;;;5053410;28;20033;-80
2022/09/08 12:20:28;;;;;;;8.77;2.63;;;;;;;;;;5051492;28;20036;-73
2022/09/08 12:23:12;;;;;;;13.32;2.50;;;;;;;;;;5052786;28;20048;-78
2022/09/08 12:25:57;;;;;;;8.13;2.10;;;;;;;;;;5053362;28;20027;-76
2022/09/08 12:28:41;;;;;;;7.78;2.22;;;;;;;;;;5051084;28;20151;-76
2022/09/08 12:31:07;;;;;;;7.75;2.10;;;;;;;;;;5053948;28;20040;-78
2022/09/08 12:33:39;;;;;;;9.70;2.63;;;;;;;;;;5052689;28;20029;-78
2022/09/08 12:36:17;;;;;;;7.72;2.17;;;;;;;;;;5052703;28;20029;-78
2022/09/08 12:38:53;;;;;;;10.02;2.63;;;;;;;;;;5052345;28;20052;-82
2022/09/08 12:41:19;;;;;;;8.48;2.28;;;;;;;;;;5050812;28;20040;-79
2022/09/08 12:43:46;;;;;;;9.50;2.53;;;;;;;;;;5038251;28;20029;-78
2022/09/08 12:46:24;;;;;;;6.05;2.15;;;;;;;;;;5056410;28;20104;-80
2022/09/08 12:48:55;;;;;;;9.10;2.30;;;;;;;;;;5056884;28;20021;-75
2022/09/08 12:51:24;;;;;;;10.15;2.30;;;;;;;;;;5056469;28;20025;-79
2022/09/08 12:54:08;;;;;;;7.65;2.33;;;;;;;;;;5055194;28;20466;-75
2022/09/08 12:56:43;;;;;;;8.75;2.03;;;;;;;;;;5056688;28;20037;-76
2022/09/08 12:59:28;;;;;;;12.10;3.10;;;;;;;;;;5055167;28;20056;-77
2022/09/08 13:01:58;;;;;;;6.43;1.80;;;;;;;;;;5055997;28;20083;-78
2022/09/08 13:04:24;;;;;;;;;;;;;;;;;;5037296;28;20029;-79
2022/09/08 13:07:01;;;;;;;7.03;2.08;;;;;;;;;;5055243;28;19916;-75
2022/09/08 13:09:32;;;;;;;8.18;2.28;;;;;;;;;;5055391;28;20063;-79
2022/09/08 13:12:01;;;;;;;7.10;2.10;;;;;;;;;;5054717;28;20021;-72
2022/09/08 13:14:47;;;;;;;11.15;2.90;;;;;;;;;;5055199;28;20029;-78
2022/09/08 13:17:17;;;;;;;7.40;2.33;;;;;;;;;;5055942;28;20024;-71
2022/09/08 13:19:43;;;;;;;;;;;;;;;;;;5053838;28;20497;-73
2022/09/08 13:22:24;;;;;;;11.75;3.67;;;;;;;;;;5032246;28;19916;-75
2022/09/08 13:25:05;;;;;;;14.45;4.18;;;;;;;;;;5054557;28;20025;-79
2022/09/08 13:27:51;;;;;;;10.27;2.80;;;;;;;;;;5053854;28;20017;-73
2022/09/08 13:30:22;;;;;;;8.73;2.45;;;;;;;;;;5053828;28;20029;-77
2022/09/08 13:33:07;;;;;;;10.32;3.03;;;;;;;;;;5055157;28;20024;-78
2022/09/08 13:35:36;;;;;;;10.07;2.47;;;;;;;;;;5049565;28;20068;-72
2022/09/08 13:38:06;;;;;;;8.18;2.22;;;;;;;;;;5035632;28;20028;-75
2022/09/08 13:40:50;;;;;;;11.77;2.93;;;;;;;;;;5055097;28;20075;-74
2022/09/08 13:43:35;;;;;;;9.73;2.38;;;;;;;;;;5055315;28;20259;-73
2022/09/08 13:46:19;;;;;;;12.63;3.58;;;;;;;;;;5052983;28;20039;-72
2022/09/08 13:49:00;;;;;;;16.13;3.03;;;;;;;;;;5055296;28;20067;-78
2022/09/08 13:51:42;;;;;;;12.02;2.80;;;;;;;;;;5039230;28;20034;-75
2022/09/08 13:54:22;;;;;;;9.13;2.15;;;;;;;;;;5050718;28;20028;-76
2022/09/08 13:57:00;;;;;;;7.07;1.80;;;;;;;;;;5053773;28;20040;-74
2022/09/08 13:59:35;;;;;;;10.70;2.53;;;;;;;;;;5047864;28;20191;-76
2022/09/08 14:02:16;;;;;;;6.68;2.20;;;;;;;;;;5045748;28;20163;-74
2022/09/08 14:04:45;;;;;;;10.02;2.47;;;;;;;;;;5053802;28;20394;-73
2022/09/08 14:07:22;;;;;;;10.00;3.05;;;;;;;;;;5054774;28;20017;-72
2022/09/08 14:10:07;;;;;;;9.98;3.03;;;;;;;;;;5054321;28;20021;-76
2022/09/08 14:12:33;;;;;;;7.63;2.20;;;;;;;;;;5055254;28;20040;-75
2022/09/08 14:15:02;;;;;;;10.40;2.45;;;;;;;;;;5054723;28;20025;-77
2022/09/08 14:17:46;;;;;;;9.85;2.78;;;;;;;;;;5052432;28;20020;-81
2022/09/08 14:20:31;;;;;;;12.60;3.63;;;;;;;;;;5052243;28;20112;-76
2022/09/08 14:23:00;;;;;;;13.43;2.78;;;;;;;;;;5053497;28;20072;-77
2022/09/08 14:25:34;;;;;;;9.80;3.00;;;;;;;;;;5054509;28;20021;-75
2022/09/08 14:28:00;;;;;;;12.55;2.85;;;;;;;;;;5054786;28;20381;-75
2022/09/08 14:30:41;;;;;;;12.80;2.45;;;;;;;;;;5054107;28;20040;-75
2022/09/08 14:33:13;;;;;;;10.38;2.58;;;;;;;;;;5053209;28;20401;-76
2022/09/08 14:35:46;;;;;;;9.85;2.78;;;;;;;;;;5054548;28;20067;-80
2022/09/08 14:38:31;;;;;;;10.15;2.47;;;;;;;;;;5051918;28;20025;-75
2022/09/08 14:41:00;;;;;;;12.57;3.08;;;;;;;;;;5046559;28;20115;-72
2022/09/08 14:43:27;;;;;;;13.55;2.72;;;;;;;;;;5052647;28;20059;-75
2022/09/08 14:45:56;;;;;;;11.93;2.80;;;;;;;;;;5052456;28;20025;-74
2022/09/08 14:48:22;;;;;;;13.98;2.55;;;;;;;;;;5050611;28;20104;-76
2022/09/08 14:51:04;;;;;;;10.52;2.45;;;;;;;;;;5052122;28;20464;-75
2022/09/08 14:53:37;;;;;;;15.68;3.00;;;;;;;;;;5034825;28;20032;-76
2022/09/08 14:56:03;;;;;;;10.60;2.92;;;;;;;;;;5031584;28;20028;-76
2022/09/08 14:58:34;;;;;;;10.57;2.38;;;;;;;;;;5052926;28;20063;-77
2022/09/08 15:01:10;;;;;;;7.75;2.28;;;;;;;;;;5052516;28;20044;-76
2022/09/08 15:03:40;;;;;;;9.55;2.47;;;;;;;;;;5053009;28;20029;-82
2022/09/08 15:06:10;;;;;;;10.98;2.50;;;;;;;;;;5050251;28;20025;-76
2022/09/08 15:08:37;;;;;;;12.57;3.13;;;;;;;;;;5052539;28;20067;-77